Time;durP1;ratioP1;P1;durP2;ratioP2;P2;SDS_P1;SDS_P2;PMS_P1;PMS_P2;Temp;Humidity;BMP_temperature;BMP_pressure;BME280_temperature;BME280_humidity;BME280_pressure;Samples;Min_cycle;Max_cycle;Signal;HPM_P1;HPM_P2
2021/12/18 00:00:50;;;;;;;2.40;1.48;;;;;;;;;;5064013;28;20052;-67
2021/12/18 00:03:17;;;;;;;4.13;1.20;;;;;;;;;;5058075;28;20044;-67
2021/12/18 00:05:44;;;;;;;3.60;1.48;;;;;;;;;;5069467;28;20040;-67
2021/12/18 00:08:10;;;;;;;2.25;1.35;;;;;;;;;;5086692;28;20036;-67
2021/12/18 00:10:37;;;;;;;5.82;1.48;;;;;;;;;;5067572;28;20044;-67
2021/12/18 00:13:03;;;;;;;2.40;0.93;;;;;;;;;;5070945;28;20048;-67
2021/12/18 00:15:29;;;;;;;2.92;1.30;;;;;;;;;;5064255;28;20041;-67
2021/12/18 00:17:56;;;;;;;4.68;1.30;;;;;;;;;;5067581;28;20040;-67
2021/12/18 00:20:24;;;;;;;2.55;1.40;;;;;;;;;;5102068;27;20393;-67
2021/12/18 00:22:50;;;;;;;2.38;1.27;;;;;;;;;;5069023;28;20139;-67
2021/12/18 00:25:16;;;;;;;3.03;1.77;;;;;;;;;;5071402;28;20048;-67
2021/12/18 00:27:44;;;;;;;7.80;2.35;;;;;;;;;;5070419;28;20108;-67
2021/12/18 00:30:10;;;;;;;4.45;2.00;;;;;;;;;;5066200;28;20185;-67
2021/12/18 00:32:38;;;;;;;4.50;2.05;;;;;;;;;;5069302;28;20052;-67
2021/12/18 00:35:04;;;;;;;5.13;1.95;;;;;;;;;;5069266;28;20056;-67
2021/12/18 00:37:31;;;;;;;8.20;2.00;;;;;;;;;;5066057;28;20059;-68
2021/12/18 00:39:59;;;;;;;8.02;1.90;;;;;;;;;;5071296;28;20110;-67
2021/12/18 00:45:03;;;;;;;3.30;1.50;;;;;;;;;;5060363;28;20044;-67
2021/12/18 00:47:29;;;;;;;6.15;2.13;;;;;;;;;;5068646;28;20505;-67
2021/12/18 00:49:55;;;;;;;4.63;2.10;;;;;;;;;;5068424;28;20041;-67
2021/12/18 00:52:22;;;;;;;2.80;1.40;;;;;;;;;;5069034;28;20040;-67
2021/12/18 00:54:49;;;;;;;5.22;1.73;;;;;;;;;;5068558;28;20508;-67
2021/12/18 00:57:15;;;;;;;9.15;3.13;;;;;;;;;;5051048;28;20041;-67
2021/12/18 00:59:41;;;;;;;6.20;2.58;;;;;;;;;;5068162;28;20041;-67
2021/12/18 01:02:07;;;;;;;8.27;2.45;;;;;;;;;;5067773;28;20032;-66
2021/12/18 01:04:33;;;;;;;3.85;2.28;;;;;;;;;;5097002;28;20470;-67
2021/12/18 01:07:00;;;;;;;7.40;2.45;;;;;;;;;;5067588;28;20040;-67
2021/12/18 01:10:04;;;;;;;6.20;2.35;;;;;;;;;;5069902;28;20097;-67
2021/12/18 01:12:18;;;;;;;6.45;1.90;;;;;;;;;;5066399;28;20053;-67
2021/12/18 01:25:07;;;;;;;6.15;2.72;;;;;;;;;;5102244;27;20055;-67
2021/12/18 01:27:34;;;;;;;4.53;2.47;;;;;;;;;;5067392;28;20091;-67
2021/12/18 01:30:00;;;;;;;4.00;2.38;;;;;;;;;;5067145;28;20107;-67
2021/12/18 01:32:28;;;;;;;10.88;2.65;;;;;;;;;;5064098;28;20522;-67
2021/12/18 01:34:54;;;;;;;6.13;2.20;;;;;;;;;;5065307;28;20059;-67
2021/12/18 01:37:21;;;;;;;7.45;2.30;;;;;;;;;;5065787;28;20071;-66
2021/12/18 01:39:47;;;;;;;4.03;2.10;;;;;;;;;;5068714;28;20044;-67
2021/12/18 01:53:57;;;;;;;5.55;2.33;;;;;;;;;;5017476;28;20451;-67
2021/12/18 01:56:24;;;;;;;6.25;2.90;;;;;;;;;;4971092;28;20092;-67
2021/12/18 01:58:51;;;;;;;6.22;3.05;;;;;;;;;;5035898;28;20109;-67
2021/12/18 02:01:17;;;;;;;23.05;5.55;;;;;;;;;;5064398;28;20600;-67
2021/12/18 02:03:44;;;;;;;6.00;3.40;;;;;;;;;;5064633;28;20123;-67
2021/12/18 02:06:11;;;;;;;7.65;3.10;;;;;;;;;;5064817;28;20379;-67
2021/12/18 02:08:38;;;;;;;4.43;3.00;;;;;;;;;;5063166;28;20386;-66
2021/12/18 02:11:17;;;;;;;4.32;2.30;;;;;;;;;;5065232;28;20036;-67
2021/12/18 02:21:46;;;;;;;6.75;3.85;;;;;;;;;;5066663;28;20409;-67
2021/12/18 02:24:14;;;;;;;9.07;3.47;;;;;;;;;;5065993;28;20044;-67
2021/12/18 02:26:40;;;;;;;5.40;2.75;;;;;;;;;;5065330;28;20513;-67
2021/12/18 02:29:10;;;;;;;6.18;2.90;;;;;;;;;;5068120;28;20056;-67
2021/12/18 02:31:36;;;;;;;6.63;3.35;;;;;;;;;;5081994;28;20507;-68
2021/12/18 02:34:03;;;;;;;4.03;2.20;;;;;;;;;;5064405;28;20481;-66
2021/12/18 02:36:30;;;;;;;3.75;2.47;;;;;;;;;;5067672;28;20126;-67
2021/12/18 02:39:18;;;;;;;5.10;2.55;;;;;;;;;;5064036;28;20037;-67
2021/12/18 02:41:56;;;;;;;4.60;2.60;;;;;;;;;;5063652;28;20043;-67
2021/12/18 02:44:22;;;;;;;5.20;2.60;;;;;;;;;;5057271;28;20044;-67
2021/12/18 02:46:48;;;;;;;8.30;3.25;;;;;;;;;;5068952;28;20056;-67
2021/12/18 02:49:15;;;;;;;9.50;3.78;;;;;;;;;;5092539;28;20032;-66
2021/12/18 02:51:42;;;;;;;7.00;3.63;;;;;;;;;;5060994;28;20033;-67
2021/12/18 02:54:08;;;;;;;9.05;4.28;;;;;;;;;;5065063;28;20109;-66
2021/12/18 02:56:35;;;;;;;10.02;5.22;;;;;;;;;;5056565;28;20040;-67
2021/12/18 02:59:06;;;;;;;7.90;4.82;;;;;;;;;;5069455;28;20044;-67
2021/12/18 03:01:33;;;;;;;10.93;5.57;;;;;;;;;;5064331;28;20301;-67
2021/12/18 03:04:02;;;;;;;10.45;5.47;;;;;;;;;;5057354;28;20521;-67
2021/12/18 03:06:37;;;;;;;13.60;6.25;;;;;;;;;;5046945;28;20064;-67
2021/12/18 03:25:24;;;;;;;8.65;4.68;;;;;;;;;;5067682;28;20053;-67
2021/12/18 03:27:51;;;;;;;10.57;3.65;;;;;;;;;;5066634;28;20037;-67
2021/12/18 03:30:18;;;;;;;7.60;2.92;;;;;;;;;;5069260;28;20036;-66
2021/12/18 03:32:44;;;;;;;9.55;4.18;;;;;;;;;;5076650;28;20478;-67
2021/12/18 03:35:11;;;;;;;6.53;3.08;;;;;;;;;;5068411;28;20139;-67
2021/12/18 03:37:38;;;;;;;4.20;2.38;;;;;;;;;;5070269;28;20040;-66
2021/12/18 03:40:09;;;;;;;5.03;2.38;;;;;;;;;;5067329;28;20510;-67
2021/12/18 03:42:35;;;;;;;3.40;1.50;;;;;;;;;;5068034;28;20279;-67
2021/12/18 03:45:01;;;;;;;2.47;1.17;;;;;;;;;;5074637;28;20497;-67
2021/12/18 03:47:27;;;;;;;2.60;1.35;;;;;;;;;;5069457;28;20044;-67
2021/12/18 03:49:54;;;;;;;3.70;1.55;;;;;;;;;;5076333;28;20036;-66
2021/12/18 03:52:20;;;;;;;3.20;1.80;;;;;;;;;;5097150;27;20123;-67
2021/12/18 03:54:46;;;;;;;2.90;1.50;;;;;;;;;;5053758;28;20101;-67
2021/12/18 03:57:13;;;;;;;2.83;1.50;;;;;;;;;;5066388;28;20036;-67
2021/12/18 03:59:39;;;;;;;2.70;1.75;;;;;;;;;;5076337;28;20155;-67
2021/12/18 04:02:05;;;;;;;3.85;2.03;;;;;;;;;;5071463;28;20047;-67
2021/12/18 04:04:31;;;;;;;3.22;1.88;;;;;;;;;;5061880;28;20473;-67
2021/12/18 04:06:59;;;;;;;3.67;1.73;;;;;;;;;;5072169;28;20457;-67
2021/12/18 04:09:26;;;;;;;4.10;2.08;;;;;;;;;;5067285;28;20535;-67
2021/12/18 04:11:52;;;;;;;5.05;1.88;;;;;;;;;;5066624;28;20933;-67
2021/12/18 04:14:18;;;;;;;4.07;2.17;;;;;;;;;;5071371;28;20383;-67
2021/12/18 04:16:46;;;;;;;3.97;2.13;;;;;;;;;;5066761;28;20441;-67
2021/12/18 04:19:14;;;;;;;3.92;2.03;;;;;;;;;;5062941;28;20044;-67
2021/12/18 04:21:40;;;;;;;7.05;2.85;;;;;;;;;;5064079;28;20041;-67
2021/12/18 04:24:07;;;;;;;5.15;3.05;;;;;;;;;;5067030;28;20044;-67
2021/12/18 04:26:33;;;;;;;5.30;2.60;;;;;;;;;;5068036;28;20032;-67
2021/12/18 04:29:01;;;;;;;7.00;2.95;;;;;;;;;;5057175;28;20040;-67
2021/12/18 04:31:28;;;;;;;5.13;2.78;;;;;;;;;;5065620;28;20451;-67
2021/12/18 04:33:54;;;;;;;6.30;3.80;;;;;;;;;;5069111;28;20119;-67
2021/12/18 04:36:21;;;;;;;5.88;3.15;;;;;;;;;;5067810;28;20052;-67
2021/12/18 04:38:48;;;;;;;6.93;3.58;;;;;;;;;;5066285;28;20132;-67
2021/12/18 04:41:22;;;;;;;9.02;4.57;;;;;;;;;;5068186;28;20033;-68
2021/12/18 04:43:48;;;;;;;7.32;4.10;;;;;;;;;;5070816;28;20041;-67
2021/12/18 04:46:14;;;;;;;10.63;4.93;;;;;;;;;;5066122;28;20044;-67
2021/12/18 04:48:40;;;;;;;5.28;3.45;;;;;;;;;;5070269;28;20490;-67
2021/12/18 04:51:06;;;;;;;9.07;4.22;;;;;;;;;;5070594;28;20068;-67
2021/12/18 04:53:32;;;;;;;5.75;3.35;;;;;;;;;;5060480;28;20036;-67
2021/12/18 04:55:59;;;;;;;6.43;3.88;;;;;;;;;;5066780;28;20049;-67
2021/12/18 04:58:25;;;;;;;6.25;2.67;;;;;;;;;;5068119;28;20107;-67
2021/12/18 05:00:51;;;;;;;8.13;3.50;;;;;;;;;;5067319;28;20046;-67
2021/12/18 05:03:18;;;;;;;8.18;3.28;;;;;;;;;;5070839;28;20040;-67
2021/12/18 05:05:44;;;;;;;6.28;2.90;;;;;;;;;;5066843;28;20044;-67
2021/12/18 05:08:10;;;;;;;5.75;3.38;;;;;;;;;;5067241;28;20036;-67
2021/12/18 05:10:36;;;;;;;5.88;4.07;;;;;;;;;;5052422;28;20040;-66
2021/12/18 05:13:03;;;;;;;7.93;4.38;;;;;;;;;;5097921;28;20067;-66
2021/12/18 05:15:29;;;;;;;6.10;4.25;;;;;;;;;;5077136;28;20036;-67
2021/12/18 05:17:55;;;;;;;8.38;4.85;;;;;;;;;;5065507;28;20044;-67
2021/12/18 05:20:22;;;;;;;5.97;4.13;;;;;;;;;;5062174;28;20090;-67
2021/12/18 05:22:48;;;;;;;9.13;4.65;;;;;;;;;;5067542;28;20041;-66
2021/12/18 05:25:14;;;;;;;6.78;4.30;;;;;;;;;;5068147;28;20045;-67
2021/12/18 05:27:40;;;;;;;9.93;4.68;;;;;;;;;;5065130;28;20047;-67
2021/12/18 05:30:07;;;;;;;7.93;4.68;;;;;;;;;;5069592;28;20037;-67
2021/12/18 05:32:33;;;;;;;8.38;4.28;;;;;;;;;;5062900;28;20056;-67
2021/12/18 05:35:00;;;;;;;7.20;3.47;;;;;;;;;;5066517;28;20143;-67
2021/12/18 05:37:50;;;;;;;6.05;2.97;;;;;;;;;;5060864;28;20103;-67
2021/12/18 05:40:14;;;;;;;7.40;3.20;;;;;;;;;;5068504;28;20297;-67
2021/12/18 05:42:40;;;;;;;7.00;4.05;;;;;;;;;;5066521;28;20041;-67
2021/12/18 05:45:07;;;;;;;8.63;4.75;;;;;;;;;;5064112;28;20044;-67
2021/12/18 05:47:34;;;;;;;6.82;3.70;;;;;;;;;;5067469;28;20062;-67
2021/12/18 05:50:00;;;;;;;8.32;4.88;;;;;;;;;;5065790;28;20037;-67
2021/12/18 05:52:27;;;;;;;7.38;3.83;;;;;;;;;;5050443;28;20033;-66
2021/12/18 05:54:53;;;;;;;5.63;3.38;;;;;;;;;;5080253;28;20056;-67
2021/12/18 05:57:19;;;;;;;7.13;3.83;;;;;;;;;;5063629;28;20036;-67
2021/12/18 05:59:45;;;;;;;8.00;4.03;;;;;;;;;;5067446;28;20044;-67
2021/12/18 06:02:12;;;;;;;9.13;4.13;;;;;;;;;;5061955;28;20079;-67
2021/12/18 06:04:38;;;;;;;11.68;5.45;;;;;;;;;;5066236;28;20469;-67
2021/12/18 06:07:05;;;;;;;11.07;5.57;;;;;;;;;;5067990;28;20076;-68
2021/12/18 06:09:34;;;;;;;13.13;5.78;;;;;;;;;;5062147;28;20044;-67
2021/12/18 06:12:00;;;;;;;12.90;6.38;;;;;;;;;;5065291;28;20068;-67
2021/12/18 06:14:27;;;;;;;13.98;6.00;;;;;;;;;;5063589;28;20466;-67
2021/12/18 06:16:53;;;;;;;9.65;5.22;;;;;;;;;;5065092;28;20044;-67
2021/12/18 06:19:20;;;;;;;10.90;5.53;;;;;;;;;;5070249;28;20048;-67
2021/12/18 06:21:46;;;;;;;10.85;4.82;;;;;;;;;;5051396;28;20135;-67
2021/12/18 06:24:12;;;;;;;10.35;5.47;;;;;;;;;;5063425;28;20040;-66
2021/12/18 06:26:38;;;;;;;13.43;7.30;;;;;;;;;;5069068;28;20032;-67
2021/12/18 06:29:05;;;;;;;10.77;4.95;;;;;;;;;;5066758;28;20036;-67
2021/12/18 06:31:32;;;;;;;16.30;5.80;;;;;;;;;;5066877;28;20533;-67
2021/12/18 06:33:58;;;;;;;13.90;5.35;;;;;;;;;;5064773;28;20048;-67
2021/12/18 06:36:24;;;;;;;11.73;5.32;;;;;;;;;;5066806;28;20048;-67
2021/12/18 06:38:50;;;;;;;10.68;4.88;;;;;;;;;;5096918;28;20044;-67
2021/12/18 06:41:16;;;;;;;10.55;5.18;;;;;;;;;;5067931;28;20042;-66
2021/12/18 06:43:42;;;;;;;9.82;4.57;;;;;;;;;;5057398;28;20041;-66
2021/12/18 06:46:08;;;;;;;9.93;5.07;;;;;;;;;;5055600;28;20040;-67
2021/12/18 06:48:35;;;;;;;10.88;5.25;;;;;;;;;;5054435;28;20499;-66
2021/12/18 06:51:01;;;;;;;9.80;5.00;;;;;;;;;;5060296;28;20041;-67
2021/12/18 06:53:27;;;;;;;12.10;5.60;;;;;;;;;;5056670;28;20049;-67
2021/12/18 06:55:54;;;;;;;12.23;6.07;;;;;;;;;;5059682;28;20490;-67
2021/12/18 06:58:20;;;;;;;12.18;4.93;;;;;;;;;;5060282;28;20045;-67
2021/12/18 07:00:46;;;;;;;9.35;4.80;;;;;;;;;;5063695;28;20417;-67
2021/12/18 07:03:12;;;;;;;9.50;5.13;;;;;;;;;;5062460;28;20036;-67
2021/12/18 07:05:38;;;;;;;11.00;4.90;;;;;;;;;;5054022;28;20037;-67
2021/12/18 07:08:05;;;;;;;9.32;4.50;;;;;;;;;;5053426;28;20123;-66
2021/12/18 07:10:31;;;;;;;7.00;4.28;;;;;;;;;;5075714;28;20737;-66
2021/12/18 07:12:58;;;;;;;8.57;4.43;;;;;;;;;;5058202;28;20485;-66
2021/12/18 07:15:24;;;;;;;10.07;4.88;;;;;;;;;;5030332;28;20700;-65
2021/12/18 07:17:50;;;;;;;8.07;3.90;;;;;;;;;;5071951;28;20050;-67
2021/12/18 07:20:17;;;;;;;9.10;4.57;;;;;;;;;;5056777;28;20036;-66
2021/12/18 07:22:43;;;;;;;7.50;4.35;;;;;;;;;;5067483;28;20032;-66
2021/12/18 07:25:09;;;;;;;10.85;4.57;;;;;;;;;;5063333;28;20421;-66
2021/12/18 07:27:36;;;;;;;11.80;4.70;;;;;;;;;;5064725;28;20248;-66
2021/12/18 07:30:02;;;;;;;12.77;4.30;;;;;;;;;;5065142;28;20032;-67
2021/12/18 07:32:29;;;;;;;9.35;4.97;;;;;;;;;;5046445;28;20041;-66
2021/12/18 07:34:56;;;;;;;9.95;4.55;;;;;;;;;;5065247;28;20127;-66
2021/12/18 07:37:24;;;;;;;9.23;4.00;;;;;;;;;;5062407;28;20058;-66
2021/12/18 07:39:50;;;;;;;7.75;4.55;;;;;;;;;;5061680;28;20041;-66
2021/12/18 07:42:16;;;;;;;10.70;4.63;;;;;;;;;;5066717;28;20044;-66
2021/12/18 07:44:43;;;;;;;6.32;3.90;;;;;;;;;;5060760;28;20102;-66
2021/12/18 07:47:09;;;;;;;7.20;4.18;;;;;;;;;;5061837;28;20048;-66
2021/12/18 07:49:35;;;;;;;8.48;4.22;;;;;;;;;;5068022;28;20045;-66
2021/12/18 07:52:04;;;;;;;7.97;4.25;;;;;;;;;;5066456;28;20036;-67
2021/12/18 07:54:30;;;;;;;16.20;4.38;;;;;;;;;;5069768;28;20044;-66
2021/12/18 07:56:56;;;;;;;11.50;4.07;;;;;;;;;;5070997;28;20123;-67
2021/12/18 07:59:22;;;;;;;7.40;4.40;;;;;;;;;;5067338;28;20140;-66
2021/12/18 08:01:48;;;;;;;10.20;3.70;;;;;;;;;;5062811;28;20452;-66
2021/12/18 08:04:14;;;;;;;6.45;4.15;;;;;;;;;;5067222;28;20045;-66
2021/12/18 08:06:40;;;;;;;5.75;3.42;;;;;;;;;;5066969;28;20032;-67
2021/12/18 08:09:07;;;;;;;6.55;3.60;;;;;;;;;;5070501;28;20036;-67
2021/12/18 08:11:33;;;;;;;9.13;4.22;;;;;;;;;;5066764;28;20112;-66
2021/12/18 08:13:59;;;;;;;8.32;4.07;;;;;;;;;;5066886;28;20098;-66
2021/12/18 08:16:25;;;;;;;5.63;3.38;;;;;;;;;;5067539;28;20037;-66
2021/12/18 08:18:51;;;;;;;7.55;3.35;;;;;;;;;;5070509;28;20046;-66
2021/12/18 08:21:17;;;;;;;6.45;3.17;;;;;;;;;;5067371;28;20032;-66
2021/12/18 08:23:43;;;;;;;6.13;3.50;;;;;;;;;;5072244;28;20032;-66
2021/12/18 08:26:10;;;;;;;6.38;3.38;;;;;;;;;;5047228;28;20048;-66
2021/12/18 08:28:36;;;;;;;9.05;4.75;;;;;;;;;;5097711;28;20402;-66
2021/12/18 08:31:02;;;;;;;8.10;3.65;;;;;;;;;;5070447;28;20058;-66
2021/12/18 08:33:28;;;;;;;7.30;3.70;;;;;;;;;;5068532;28;20040;-66
2021/12/18 08:35:54;;;;;;;8.00;4.15;;;;;;;;;;5066531;28;20052;-66
2021/12/18 08:38:20;;;;;;;8.05;4.63;;;;;;;;;;5065108;28;20131;-66
2021/12/18 08:40:47;;;;;;;7.10;4.43;;;;;;;;;;5067256;28;20561;-66
2021/12/18 08:43:13;;;;;;;12.52;4.57;;;;;;;;;;5066544;28;20040;-66
2021/12/18 08:45:39;;;;;;;10.90;5.97;;;;;;;;;;5048527;28;20072;-67
2021/12/18 08:48:05;;;;;;;12.80;5.50;;;;;;;;;;5065811;28;20037;-67
2021/12/18 08:50:32;;;;;;;12.07;5.60;;;;;;;;;;5069843;28;20032;-66
2021/12/18 08:52:58;;;;;;;9.57;5.05;;;;;;;;;;5066727;28;20044;-66
2021/12/18 08:55:24;;;;;;;15.45;6.43;;;;;;;;;;5048803;28;20285;-67
2021/12/18 08:57:51;;;;;;;13.32;5.65;;;;;;;;;;5067428;28;20043;-67
2021/12/18 09:00:20;;;;;;;12.02;6.05;;;;;;;;;;5070080;28;20036;-66
2021/12/18 09:02:48;;;;;;;10.27;5.75;;;;;;;;;;5065825;28;20135;-67
2021/12/18 09:05:14;;;;;;;8.70;5.32;;;;;;;;;;5069890;28;20037;-66
2021/12/18 09:07:41;;;;;;;10.55;5.40;;;;;;;;;;5067130;28;20111;-67
2021/12/18 09:10:08;;;;;;;12.93;5.82;;;;;;;;;;5064309;28;20040;-66
2021/12/18 09:12:34;;;;;;;11.93;6.50;;;;;;;;;;5068932;28;20047;-67
2021/12/18 09:15:00;;;;;;;8.25;5.05;;;;;;;;;;5064594;28;20040;-66
2021/12/18 09:17:26;;;;;;;12.23;5.47;;;;;;;;;;5067988;28;20043;-67
2021/12/18 09:19:52;;;;;;;8.40;5.25;;;;;;;;;;5064800;28;20047;-66
2021/12/18 09:22:19;;;;;;;10.02;5.32;;;;;;;;;;5066035;28;20114;-66
2021/12/18 09:24:45;;;;;;;11.57;6.00;;;;;;;;;;5067595;28;20422;-67
2021/12/18 09:27:11;;;;;;;8.30;5.28;;;;;;;;;;5069174;28;20033;-67
2021/12/18 09:29:37;;;;;;;8.93;3.72;;;;;;;;;;5064416;28;20044;-68
2021/12/18 09:32:03;;;;;;;5.70;3.17;;;;;;;;;;5067243;28;20283;-66
2021/12/18 09:34:31;;;;;;;6.93;3.72;;;;;;;;;;5065084;28;20052;-67
2021/12/18 09:36:57;;;;;;;11.65;3.55;;;;;;;;;;5067299;28;20044;-66
2021/12/18 09:39:24;;;;;;;7.95;3.25;;;;;;;;;;5049604;28;20115;-66
2021/12/18 09:41:51;;;;;;;6.53;3.42;;;;;;;;;;5051651;28;20047;-66
2021/12/18 09:44:28;;;;;;;6.72;3.83;;;;;;;;;;5062819;28;20044;-66
2021/12/18 09:46:54;;;;;;;9.48;3.50;;;;;;;;;;5068521;28;20040;-66
2021/12/18 09:49:20;;;;;;;7.75;3.45;;;;;;;;;;5069730;28;20052;-66
2021/12/18 09:51:47;;;;;;;11.68;4.97;;;;;;;;;;5066348;28;20131;-67
2021/12/18 09:54:13;;;;;;;11.85;6.18;;;;;;;;;;5067671;28;20036;-66
2021/12/18 09:56:39;;;;;;;7.68;4.47;;;;;;;;;;5070427;28;20040;-66
2021/12/18 09:59:06;;;;;;;9.25;4.47;;;;;;;;;;5070917;28;20382;-67
2021/12/18 10:01:32;;;;;;;7.30;4.32;;;;;;;;;;5060749;28;21841;-66
2021/12/18 10:04:00;;;;;;;9.57;4.25;;;;;;;;;;5066192;28;20063;-66
2021/12/18 10:06:29;;;;;;;6.25;3.25;;;;;;;;;;5067121;28;20523;-66
2021/12/18 10:08:56;;;;;;;5.82;3.55;;;;;;;;;;5066322;28;20550;-67
2021/12/18 10:11:22;;;;;;;3.80;2.50;;;;;;;;;;5065806;28;20115;-66
2021/12/18 10:13:52;;;;;;;5.13;2.72;;;;;;;;;;5065796;28;20154;-67
2021/12/18 10:16:19;;;;;;;4.70;2.72;;;;;;;;;;5067531;28;20048;-67
2021/12/18 10:18:45;;;;;;;5.32;3.15;;;;;;;;;;5064548;28;20147;-67
2021/12/18 10:21:16;;;;;;;7.22;3.72;;;;;;;;;;5068678;28;20126;-66
2021/12/18 10:23:43;;;;;;;7.40;3.50;;;;;;;;;;5067905;28;20040;-67
2021/12/18 10:26:28;;;;;;;6.05;3.42;;;;;;;;;;5066027;28;20436;-66
2021/12/18 10:28:54;;;;;;;6.32;3.65;;;;;;;;;;5064038;28;20040;-67
2021/12/18 10:31:39;;;;;;;5.85;3.38;;;;;;;;;;5064229;28;20413;-67
2021/12/18 10:34:21;;;;;;;6.30;4.00;;;;;;;;;;5079710;28;20040;-66
2021/12/18 10:37:06;;;;;;;6.22;3.33;;;;;;;;;;5095962;28;20053;-67
2021/12/18 10:39:33;;;;;;;8.85;3.72;;;;;;;;;;5067736;28;20117;-66
2021/12/18 10:42:14;;;;;;;7.38;3.72;;;;;;;;;;5050324;28;20274;-67
2021/12/18 10:44:54;;;;;;;8.05;4.57;;;;;;;;;;5064683;28;20044;-66
2021/12/18 10:47:20;;;;;;;11.15;4.45;;;;;;;;;;5064988;28;20046;-66
2021/12/18 10:49:46;;;;;;;11.40;4.20;;;;;;;;;;5070707;28;20055;-67
2021/12/18 10:52:13;;;;;;;6.25;3.95;;;;;;;;;;5064007;28;20485;-67
2021/12/18 10:54:39;;;;;;;7.25;3.92;;;;;;;;;;5066226;28;20032;-68
2021/12/18 10:57:05;;;;;;;8.27;4.22;;;;;;;;;;5067622;28;20036;-66
2021/12/18 10:59:36;;;;;;;8.25;4.32;;;;;;;;;;5046557;28;20158;-66
2021/12/18 11:02:06;;;;;;;10.73;4.65;;;;;;;;;;5065300;28;20527;-66
2021/12/18 11:04:33;;;;;;;8.13;3.70;;;;;;;;;;5065160;28;20036;-66
2021/12/18 11:07:00;;;;;;;10.05;3.85;;;;;;;;;;5061980;28;20045;-67
2021/12/18 11:09:30;;;;;;;6.43;3.88;;;;;;;;;;5058316;28;20088;-67
2021/12/18 11:14:38;;;;;;;11.00;4.60;;;;;;;;;;5061116;28;20132;-66
2021/12/18 11:17:06;;;;;;;7.70;4.35;;;;;;;;;;5061560;28;20041;-67
2021/12/18 11:19:33;;;;;;;9.30;3.80;;;;;;;;;;5064484;28;20056;-66
2021/12/18 11:22:01;;;;;;;9.80;4.30;;;;;;;;;;5064146;28;20032;-66
2021/12/18 11:24:33;;;;;;;13.43;5.32;;;;;;;;;;5068910;28;20089;-67
2021/12/18 11:27:01;;;;;;;11.18;4.95;;;;;;;;;;5063219;28;20046;-67
2021/12/18 11:29:33;;;;;;;9.32;4.88;;;;;;;;;;5067378;28;20076;-67
2021/12/18 11:32:00;;;;;;;13.98;6.03;;;;;;;;;;5064160;28;20041;-66
2021/12/18 11:34:27;;;;;;;14.05;4.68;;;;;;;;;;5071032;28;20060;-67
2021/12/18 11:36:54;;;;;;;8.57;4.68;;;;;;;;;;5069874;28;20040;-67
2021/12/18 11:39:22;;;;;;;11.23;4.80;;;;;;;;;;5102119;27;20086;-67
2021/12/18 11:41:50;;;;;;;10.52;4.38;;;;;;;;;;5068993;28;20052;-67
2021/12/18 11:44:40;;;;;;;4.95;3.35;;;;;;;;;;5066540;28;20128;-67
2021/12/18 11:47:24;;;;;;;6.07;4.00;;;;;;;;;;5056544;28;20049;-67
2021/12/18 11:49:51;;;;;;;9.90;4.97;;;;;;;;;;5071123;28;20533;-66
2021/12/18 11:52:17;;;;;;;10.65;4.60;;;;;;;;;;5062369;28;20032;-67
2021/12/18 11:54:44;;;;;;;6.65;3.45;;;;;;;;;;5071374;28;20465;-67
2021/12/18 11:57:11;;;;;;;9.40;4.40;;;;;;;;;;5070151;28;20048;-67
2021/12/18 11:59:39;;;;;;;11.80;4.45;;;;;;;;;;5064010;28;20119;-67
2021/12/18 12:02:05;;;;;;;8.65;4.30;;;;;;;;;;5066163;28;20040;-67
2021/12/18 12:04:50;;;;;;;9.80;3.33;;;;;;;;;;5069059;28;20173;-67
2021/12/18 12:07:19;;;;;;;8.68;3.65;;;;;;;;;;5062525;28;20046;-67
2021/12/18 12:10:05;;;;;;;6.93;3.55;;;;;;;;;;5052125;28;20429;-67
2021/12/18 12:13:07;;;;;;;6.18;3.10;;;;;;;;;;5066175;28;20095;-67
2021/12/18 12:15:33;;;;;;;10.75;4.47;;;;;;;;;;5006506;28;20037;-67
2021/12/18 12:18:00;;;;;;;11.05;4.32;;;;;;;;;;5041616;28;20498;-67
2021/12/18 12:20:46;;;;;;;6.78;3.78;;;;;;;;;;5070677;28;20041;-67
2021/12/18 12:23:13;;;;;;;8.52;3.67;;;;;;;;;;5098549;28;20041;-68
2021/12/18 12:25:50;;;;;;;8.80;4.10;;;;;;;;;;5066192;28;20036;-67
2021/12/18 12:28:16;;;;;;;12.20;4.63;;;;;;;;;;5072958;28;20028;-67
2021/12/18 12:30:48;;;;;;;7.22;4.13;;;;;;;;;;5067512;28;20036;-68
2021/12/18 12:33:41;;;;;;;9.27;3.75;;;;;;;;;;5065526;28;20083;-67
2021/12/18 12:36:14;;;;;;;7.18;3.25;;;;;;;;;;5063734;28;20115;-67
2021/12/18 12:38:55;;;;;;;10.90;3.58;;;;;;;;;;5068094;28;20416;-68
2021/12/18 12:41:28;;;;;;;9.38;4.35;;;;;;;;;;5063225;28;20060;-67
2021/12/18 12:43:59;;;;;;;8.38;3.20;;;;;;;;;;5064217;28;20059;-67
2021/12/18 12:46:26;;;;;;;6.35;3.30;;;;;;;;;;5067927;28;20041;-67
2021/12/18 12:48:59;;;;;;;7.25;3.70;;;;;;;;;;5065977;28;20041;-67
2021/12/18 12:51:25;;;;;;;9.43;4.45;;;;;;;;;;5068640;28;20463;-67
2021/12/18 12:53:52;;;;;;;8.05;4.38;;;;;;;;;;5065745;28;20257;-67
2021/12/18 12:56:20;;;;;;;12.18;4.18;;;;;;;;;;5063658;28;20032;-66
2021/12/18 12:58:46;;;;;;;11.38;3.78;;;;;;;;;;5068502;28;20033;-67
2021/12/18 13:01:13;;;;;;;6.93;3.83;;;;;;;;;;5069659;28;20032;-67
2021/12/18 13:03:46;;;;;;;9.00;4.35;;;;;;;;;;5067304;28;20394;-67
2021/12/18 13:06:17;;;;;;;8.57;3.55;;;;;;;;;;5055594;28;20066;-67
2021/12/18 13:08:44;;;;;;;5.70;3.20;;;;;;;;;;5093261;27;20500;-67
2021/12/18 13:11:23;;;;;;;6.70;3.75;;;;;;;;;;5060832;28;20033;-67
2021/12/18 13:13:49;;;;;;;8.40;3.97;;;;;;;;;;5068354;28;20127;-67
2021/12/18 13:16:20;;;;;;;12.32;3.63;;;;;;;;;;5068087;28;20052;-66
2021/12/18 13:18:48;;;;;;;7.22;3.53;;;;;;;;;;5066498;28;20049;-66
2021/12/18 13:21:24;;;;;;;5.45;3.33;;;;;;;;;;5067361;28;20063;-66
2021/12/18 13:23:58;;;;;;;6.05;3.40;;;;;;;;;;5065214;28;20049;-66
2021/12/18 13:26:33;;;;;;;6.15;3.55;;;;;;;;;;5077899;28;20047;-66
2021/12/18 13:29:00;;;;;;;7.93;4.63;;;;;;;;;;5068469;28;20123;-66
2021/12/18 13:31:28;;;;;;;7.63;3.58;;;;;;;;;;5070185;28;20508;-66
2021/12/18 13:33:58;;;;;;;5.85;3.67;;;;;;;;;;5070515;28;20125;-67
2021/12/18 13:36:35;;;;;;;10.45;4.55;;;;;;;;;;5071508;28;20057;-67
2021/12/18 13:39:06;;;;;;;7.80;3.63;;;;;;;;;;5062841;28;20056;-66
2021/12/18 13:41:32;;;;;;;6.88;4.00;;;;;;;;;;5092880;28;20036;-66
2021/12/18 13:43:58;;;;;;;9.20;3.78;;;;;;;;;;5066778;28;20536;-66
2021/12/18 13:46:28;;;;;;;11.07;3.55;;;;;;;;;;5063853;28;20609;-66
2021/12/18 13:48:54;;;;;;;7.32;3.40;;;;;;;;;;5066906;28;20446;-67
2021/12/18 13:51:21;;;;;;;5.00;3.40;;;;;;;;;;5065811;28;20101;-66
2021/12/18 13:53:50;;;;;;;4.80;3.28;;;;;;;;;;5067646;28;20405;-66
2021/12/18 13:56:17;;;;;;;6.35;2.90;;;;;;;;;;5093309;28;20103;-66
2021/12/18 13:58:43;;;;;;;8.30;3.00;;;;;;;;;;5065194;28;20088;-66
2021/12/18 14:01:10;;;;;;;11.95;3.70;;;;;;;;;;5047361;28;20040;-67
2021/12/18 14:03:59;;;;;;;6.82;3.10;;;;;;;;;;5067658;28;20037;-67
2021/12/18 14:06:36;;;;;;;8.45;4.07;;;;;;;;;;5074191;28;20040;-67
2021/12/18 14:09:05;;;;;;;3.88;2.40;;;;;;;;;;5058516;28;20049;-67
2021/12/18 14:11:41;;;;;;;6.65;2.40;;;;;;;;;;5064946;28;20046;-67
2021/12/18 14:14:09;;;;;;;6.95;2.28;;;;;;;;;;5065770;28;20056;-67
2021/12/18 14:16:35;;;;;;;6.57;3.67;;;;;;;;;;5065770;28;20044;-66
2021/12/18 14:19:11;;;;;;;7.72;3.83;;;;;;;;;;5064252;28;20490;-67
2021/12/18 14:21:45;;;;;;;5.32;3.60;;;;;;;;;;5064431;28;20077;-67
2021/12/18 14:24:15;;;;;;;5.53;3.42;;;;;;;;;;5063545;28;20048;-67
2021/12/18 14:26:53;;;;;;;8.40;4.40;;;;;;;;;;5060559;28;20033;-66
2021/12/18 14:29:19;;;;;;;9.15;4.47;;;;;;;;;;5066912;28;20383;-66
2021/12/18 14:31:50;;;;;;;10.38;4.65;;;;;;;;;;5069817;28;20414;-66
2021/12/18 14:34:24;;;;;;;10.02;4.88;;;;;;;;;;5070997;28;20037;-66
2021/12/18 14:36:50;;;;;;;9.02;5.32;;;;;;;;;;5066156;28;20059;-66
2021/12/18 14:39:21;;;;;;;10.85;5.72;;;;;;;;;;5056794;28;20048;-66
2021/12/18 14:41:53;;;;;;;8.90;6.40;;;;;;;;;;5053644;28;20101;-66
2021/12/18 14:44:19;;;;;;;12.82;5.25;;;;;;;;;;5056879;28;20555;-66
2021/12/18 14:46:45;;;;;;;8.98;4.88;;;;;;;;;;5061144;28;20044;-66
2021/12/18 14:49:12;;;;;;;10.55;4.40;;;;;;;;;;5055837;28;20205;-66
2021/12/18 14:51:39;;;;;;;8.20;4.00;;;;;;;;;;5053003;28;20502;-67
2021/12/18 14:54:06;;;;;;;8.70;3.80;;;;;;;;;;5058123;28;20048;-66
2021/12/18 14:56:32;;;;;;;10.98;4.13;;;;;;;;;;5085687;28;20135;-66
2021/12/18 14:58:59;;;;;;;6.20;3.53;;;;;;;;;;5090574;28;20074;-66
2021/12/18 15:01:25;;;;;;;5.22;3.15;;;;;;;;;;5059771;28;20105;-67
2021/12/18 15:03:52;;;;;;;5.60;3.03;;;;;;;;;;5061993;28;20048;-66
2021/12/18 15:06:34;;;;;;;8.55;3.88;;;;;;;;;;5065788;28;20092;-66
2021/12/18 15:09:05;;;;;;;6.32;3.38;;;;;;;;;;5065992;28;20567;-66
2021/12/18 15:11:44;;;;;;;6.25;3.60;;;;;;;;;;5065963;28;20415;-67
2021/12/18 15:14:24;;;;;;;5.72;2.70;;;;;;;;;;5071915;28;20049;-67
2021/12/18 15:16:56;;;;;;;7.22;2.95;;;;;;;;;;5064880;28;20087;-67
2021/12/18 15:19:23;;;;;;;7.20;3.08;;;;;;;;;;5056643;28;20053;-66
2021/12/18 15:21:51;;;;;;;5.07;3.38;;;;;;;;;;5060065;28;20072;-66
2021/12/18 15:24:18;;;;;;;7.80;2.92;;;;;;;;;;5065163;28;20671;-66
2021/12/18 15:26:45;;;;;;;5.25;2.83;;;;;;;;;;5101733;27;20029;-67
2021/12/18 15:29:12;;;;;;;4.43;2.78;;;;;;;;;;5071621;28;20143;-67
2021/12/18 15:31:39;;;;;;;7.88;2.95;;;;;;;;;;5066873;28;20029;-67
2021/12/18 15:34:10;;;;;;;4.07;1.92;;;;;;;;;;5066249;28;20397;-66
2021/12/18 15:36:40;;;;;;;5.30;2.58;;;;;;;;;;5073811;28;20443;-67
2021/12/18 15:39:07;;;;;;;6.70;2.20;;;;;;;;;;5064298;28;20043;-66